sensor_id;sensor_type;location;lat;lon;timestamp;temperature;humidity
42141;DHT22;27809;51.864;5.646;2023-04-24T00:01:22;9.60;99.90
42141;DHT22;27809;51.864;5.646;2023-04-24T00:03:47;9.60;99.90
42141;DHT22;27809;51.864;5.646;2023-04-24T00:06:13;9.60;99.90
42141;DHT22;27809;51.864;5.646;2023-04-24T00:08:38;9.50;99.90
42141;DHT22;27809;51.864;5.646;2023-04-24T00:11:04;9.60;99.90
42141;DHT22;27809;51.864;5.646;2023-04-24T00:13:29;9.40;99.90
42141;DHT22;27809;51.864;5.646;2023-04-24T00:15:55;9.40;99.90
42141;DHT22;27809;51.864;5.646;2023-04-24T00:18:21;9.50;99.90
42141;DHT22;27809;51.864;5.646;2023-04-24T00:20:47;9.50;99.90
42141;DHT22;27809;51.864;5.646;2023-04-24T00:23:13;9.40;99.90
42141;DHT22;27809;51.864;5.646;2023-04-24T00:25:39;9.50;99.90
42141;DHT22;27809;51.864;5.646;2023-04-24T00:28:05;9.50;99.90
42141;DHT22;27809;51.864;5.646;2023-04-24T00:30:31;9.50;99.90
42141;DHT22;27809;51.864;5.646;2023-04-24T00:32:57;9.50;99.90
42141;DHT22;27809;51.864;5.646;2023-04-24T00:35:22;9.60;99.90
42141;DHT22;27809;51.864;5.646;2023-04-24T00:37:48;9.60;99.90
42141;DHT22;27809;51.864;5.646;2023-04-24T00:40:14;9.60;99.90
42141;DHT22;27809;51.864;5.646;2023-04-24T00:42:40;9.60;99.90
42141;DHT22;27809;51.864;5.646;2023-04-24T00:45:06;9.60;99.90
42141;DHT22;27809;51.864;5.646;2023-04-24T00:47:33;9.60;99.90
42141;DHT22;27809;51.864;5.646;2023-04-24T00:49:59;9.60;99.90
42141;DHT22;27809;51.864;5.646;2023-04-24T00:52:25;9.60;99.90
42141;DHT22;27809;51.864;5.646;2023-04-24T00:54:51;9.70;99.90
42141;DHT22;27809;51.864;5.646;2023-04-24T00:57:17;9.70;99.90
42141;DHT22;27809;51.864;5.646;2023-04-24T00:59:43;9.60;99.90
42141;DHT22;27809;51.864;5.646;2023-04-24T01:02:09;9.60;99.90
42141;DHT22;27809;51.864;5.646;2023-04-24T01:04:36;9.60;99.90
42141;DHT22;27809;51.864;5.646;2023-04-24T01:07:02;9.60;99.90
42141;DHT22;27809;51.864;5.646;2023-04-24T01:09:28;9.60;99.90
42141;DHT22;27809;51.864;5.646;2023-04-24T01:11:54;9.70;99.90
42141;DHT22;27809;51.864;5.646;2023-04-24T01:14:20;9.70;99.90
42141;DHT22;27809;51.864;5.646;2023-04-24T01:16:45;9.70;99.90
42141;DHT22;27809;51.864;5.646;2023-04-24T01:19:11;9.70;99.90
42141;DHT22;27809;51.864;5.646;2023-04-24T01:21:38;9.80;99.90
42141;DHT22;27809;51.864;5.646;2023-04-24T01:24:05;9.80;99.90
42141;DHT22;27809;51.864;5.646;2023-04-24T01:26:32;9.80;99.90
42141;DHT22;27809;51.864;5.646;2023-04-24T01:28:58;9.80;99.90
42141;DHT22;27809;51.864;5.646;2023-04-24T01:31:23;9.80;99.90
42141;DHT22;27809;51.864;5.646;2023-04-24T01:33:50;9.80;99.90
42141;DHT22;27809;51.864;5.646;2023-04-24T01:36:16;9.80;99.90
42141;DHT22;27809;51.864;5.646;2023-04-24T01:38:42;9.70;99.90
42141;DHT22;27809;51.864;5.646;2023-04-24T01:41:07;9.80;99.90
42141;DHT22;27809;51.864;5.646;2023-04-24T01:43:33;9.60;99.90
42141;DHT22;27809;51.864;5.646;2023-04-24T01:45:59;9.70;99.90
42141;DHT22;27809;51.864;5.646;2023-04-24T01:48:24;9.80;99.90
42141;DHT22;27809;51.864;5.646;2023-04-24T01:50:50;9.70;99.90
42141;DHT22;27809;51.864;5.646;2023-04-24T01:53:15;9.70;99.90
42141;DHT22;27809;51.864;5.646;2023-04-24T01:55:41;9.70;99.90
42141;DHT22;27809;51.864;5.646;2023-04-24T01:58:06;9.70;99.90
42141;DHT22;27809;51.864;5.646;2023-04-24T02:00:32;9.70;99.90
42141;DHT22;27809;51.864;5.646;2023-04-24T02:02:58;9.80;99.90
42141;DHT22;27809;51.864;5.646;2023-04-24T02:05:23;9.80;99.90
42141;DHT22;27809;51.864;5.646;2023-04-24T02:07:49;9.70;99.90
42141;DHT22;27809;51.864;5.646;2023-04-24T02:10:15;9.70;99.90
42141;DHT22;27809;51.864;5.646;2023-04-24T02:12:40;9.70;99.90
42141;DHT22;27809;51.864;5.646;2023-04-24T02:15:06;9.70;99.90
42141;DHT22;27809;51.864;5.646;2023-04-24T02:17:32;9.60;99.90
42141;DHT22;27809;51.864;5.646;2023-04-24T02:19:57;9.70;99.90
42141;DHT22;27809;51.864;5.646;2023-04-24T02:22:23;9.60;99.90
42141;DHT22;27809;51.864;5.646;2023-04-24T02:24:48;9.70;99.90
42141;DHT22;27809;51.864;5.646;2023-04-24T02:27:14;9.80;99.90
42141;DHT22;27809;51.864;5.646;2023-04-24T02:29:40;9.80;99.90
42141;DHT22;27809;51.864;5.646;2023-04-24T02:32:05;9.80;99.90
42141;DHT22;27809;51.864;5.646;2023-04-24T02:34:31;9.70;99.90
42141;DHT22;27809;51.864;5.646;2023-04-24T02:36:56;9.70;99.90
42141;DHT22;27809;51.864;5.646;2023-04-24T02:39:22;9.70;99.90
42141;DHT22;27809;51.864;5.646;2023-04-24T02:41:47;9.70;99.90
42141;DHT22;27809;51.864;5.646;2023-04-24T02:44:13;9.50;99.90
42141;DHT22;27809;51.864;5.646;2023-04-24T02:46:38;9.60;99.90
42141;DHT22;27809;51.864;5.646;2023-04-24T02:49:06;9.70;99.90
42141;DHT22;27809;51.864;5.646;2023-04-24T02:51:32;9.60;99.90
42141;DHT22;27809;51.864;5.646;2023-04-24T02:53:57;9.60;99.90
42141;DHT22;27809;51.864;5.646;2023-04-24T02:56:23;9.60;99.90
42141;DHT22;27809;51.864;5.646;2023-04-24T02:58:48;9.60;99.90
42141;DHT22;27809;51.864;5.646;2023-04-24T03:01:14;9.50;99.90
42141;DHT22;27809;51.864;5.646;2023-04-24T03:03:40;9.50;99.90
42141;DHT22;27809;51.864;5.646;2023-04-24T03:06:06;9.50;99.90
42141;DHT22;27809;51.864;5.646;2023-04-24T03:08:33;9.60;99.90
42141;DHT22;27809;51.864;5.646;2023-04-24T03:10:59;9.60;99.90
42141;DHT22;27809;51.864;5.646;2023-04-24T03:13:25;9.50;99.90
42141;DHT22;27809;51.864;5.646;2023-04-24T03:15:50;9.50;99.90
42141;DHT22;27809;51.864;5.646;2023-04-24T03:18:16;9.50;99.90
42141;DHT22;27809;51.864;5.646;2023-04-24T03:20:41;9.30;99.90
42141;DHT22;27809;51.864;5.646;2023-04-24T03:23:07;9.40;99.90
42141;DHT22;27809;51.864;5.646;2023-04-24T03:25:32;9.40;99.90
42141;DHT22;27809;51.864;5.646;2023-04-24T03:27:58;9.40;99.90
42141;DHT22;27809;51.864;5.646;2023-04-24T03:30:23;9.30;99.90
42141;DHT22;27809;51.864;5.646;2023-04-24T03:32:49;9.20;99.90
42141;DHT22;27809;51.864;5.646;2023-04-24T03:35:14;9.30;99.90
42141;DHT22;27809;51.864;5.646;2023-04-24T03:37:40;9.20;99.90
42141;DHT22;27809;51.864;5.646;2023-04-24T03:40:06;9.20;99.90
42141;DHT22;27809;51.864;5.646;2023-04-24T03:42:32;9.20;99.90
42141;DHT22;27809;51.864;5.646;2023-04-24T03:44:57;9.20;99.90
42141;DHT22;27809;51.864;5.646;2023-04-24T03:47:23;9.20;99.90
42141;DHT22;27809;51.864;5.646;2023-04-24T03:49:48;9.10;99.90
42141;DHT22;27809;51.864;5.646;2023-04-24T03:52:14;9.10;99.90
42141;DHT22;27809;51.864;5.646;2023-04-24T03:54:40;9.10;99.90
42141;DHT22;27809;51.864;5.646;2023-04-24T03:57:05;9.00;99.90
42141;DHT22;27809;51.864;5.646;2023-04-24T03:59:31;9.00;99.90
42141;DHT22;27809;51.864;5.646;2023-04-24T04:01:56;8.90;99.90
42141;DHT22;27809;51.864;5.646;2023-04-24T04:04:22;8.90;99.90
42141;DHT22;27809;51.864;5.646;2023-04-24T04:06:47;9.00;99.90
42141;DHT22;27809;51.864;5.646;2023-04-24T04:09:13;9.00;99.90
42141;DHT22;27809;51.864;5.646;2023-04-24T04:11:39;9.00;99.90
42141;DHT22;27809;51.864;5.646;2023-04-24T04:14:04;9.00;99.90
42141;DHT22;27809;51.864;5.646;2023-04-24T04:16:30;8.90;99.90
42141;DHT22;27809;51.864;5.646;2023-04-24T04:18:56;8.90;99.90
42141;DHT22;27809;51.864;5.646;2023-04-24T04:21:21;9.00;99.90
42141;DHT22;27809;51.864;5.646;2023-04-24T04:23:47;8.90;99.90
42141;DHT22;27809;51.864;5.646;2023-04-24T04:26:13;8.80;99.90
42141;DHT22;27809;51.864;5.646;2023-04-24T04:28:39;8.90;99.90
42141;DHT22;27809;51.864;5.646;2023-04-24T04:31:05;8.90;99.90
42141;DHT22;27809;51.864;5.646;2023-04-24T04:33:30;8.90;99.90
42141;DHT22;27809;51.864;5.646;2023-04-24T04:35:56;8.80;99.90
42141;DHT22;27809;51.864;5.646;2023-04-24T04:38:22;8.90;99.90
42141;DHT22;27809;51.864;5.646;2023-04-24T04:40:48;8.80;99.90
42141;DHT22;27809;51.864;5.646;2023-04-24T04:43:13;8.80;99.90
42141;DHT22;27809;51.864;5.646;2023-04-24T04:45:40;8.90;99.90
42141;DHT22;27809;51.864;5.646;2023-04-24T04:48:08;9.00;99.90
42141;DHT22;27809;51.864;5.646;2023-04-24T04:50:35;8.90;99.90
42141;DHT22;27809;51.864;5.646;2023-04-24T04:53:00;8.90;99.90
42141;DHT22;27809;51.864;5.646;2023-04-24T04:55:26;9.00;99.90
42141;DHT22;27809;51.864;5.646;2023-04-24T04:57:51;9.00;99.90
42141;DHT22;27809;51.864;5.646;2023-04-24T05:00:18;8.90;99.90
42141;DHT22;27809;51.864;5.646;2023-04-24T05:02:43;8.90;99.90
42141;DHT22;27809;51.864;5.646;2023-04-24T05:05:09;9.00;99.90
42141;DHT22;27809;51.864;5.646;2023-04-24T05:07:35;9.00;99.90
42141;DHT22;27809;51.864;5.646;2023-04-24T05:10:01;8.90;99.90
42141;DHT22;27809;51.864;5.646;2023-04-24T05:12:26;9.00;99.90
42141;DHT22;27809;51.864;5.646;2023-04-24T05:14:52;9.10;99.90
42141;DHT22;27809;51.864;5.646;2023-04-24T05:17:18;9.10;99.90
42141;DHT22;27809;51.864;5.646;2023-04-24T05:19:43;9.10;99.90
42141;DHT22;27809;51.864;5.646;2023-04-24T05:22:09;9.20;99.90
42141;DHT22;27809;51.864;5.646;2023-04-24T05:24:36;9.20;99.90
42141;DHT22;27809;51.864;5.646;2023-04-24T05:27:04;9.20;99.90
42141;DHT22;27809;51.864;5.646;2023-04-24T05:29:30;9.10;99.90
42141;DHT22;27809;51.864;5.646;2023-04-24T05:31:57;9.20;99.90
42141;DHT22;27809;51.864;5.646;2023-04-24T05:34:22;9.20;99.90
42141;DHT22;27809;51.864;5.646;2023-04-24T05:36:48;9.20;99.90
42141;DHT22;27809;51.864;5.646;2023-04-24T05:39:14;9.20;99.90
42141;DHT22;27809;51.864;5.646;2023-04-24T05:41:40;9.20;99.90
42141;DHT22;27809;51.864;5.646;2023-04-24T05:44:06;9.10;99.90
42141;DHT22;27809;51.864;5.646;2023-04-24T05:46:31;9.10;99.90
42141;DHT22;27809;51.864;5.646;2023-04-24T05:48:57;9.00;99.90
42141;DHT22;27809;51.864;5.646;2023-04-24T05:51:23;9.00;99.90
42141;DHT22;27809;51.864;5.646;2023-04-24T05:53:48;9.00;99.90
42141;DHT22;27809;51.864;5.646;2023-04-24T05:56:14;9.10;99.90
42141;DHT22;27809;51.864;5.646;2023-04-24T05:58:40;9.10;99.90
42141;DHT22;27809;51.864;5.646;2023-04-24T06:01:06;9.00;99.90
42141;DHT22;27809;51.864;5.646;2023-04-24T06:03:31;8.80;99.90
42141;DHT22;27809;51.864;5.646;2023-04-24T06:05:58;8.80;99.90
42141;DHT22;27809;51.864;5.646;2023-04-24T06:08:23;8.80;99.90
42141;DHT22;27809;51.864;5.646;2023-04-24T06:10:49;8.90;99.90
42141;DHT22;27809;51.864;5.646;2023-04-24T06:13:15;9.00;99.90
42141;DHT22;27809;51.864;5.646;2023-04-24T06:15:41;8.90;99.90
42141;DHT22;27809;51.864;5.646;2023-04-24T06:18:06;9.10;99.90
42141;DHT22;27809;51.864;5.646;2023-04-24T06:20:32;9.10;99.90
42141;DHT22;27809;51.864;5.646;2023-04-24T06:22:58;9.10;99.90
42141;DHT22;27809;51.864;5.646;2023-04-24T06:25:28;9.20;99.90
42141;DHT22;27809;51.864;5.646;2023-04-24T06:27:54;9.30;99.90
42141;DHT22;27809;51.864;5.646;2023-04-24T06:30:20;9.10;99.90
42141;DHT22;27809;51.864;5.646;2023-04-24T06:32:46;9.20;99.90
42141;DHT22;27809;51.864;5.646;2023-04-24T06:35:11;9.10;99.90
42141;DHT22;27809;51.864;5.646;2023-04-24T06:37:40;9.00;99.90
42141;DHT22;27809;51.864;5.646;2023-04-24T06:40:06;9.00;99.90
42141;DHT22;27809;51.864;5.646;2023-04-24T06:42:32;8.90;99.90
42141;DHT22;27809;51.864;5.646;2023-04-24T06:44:59;8.90;99.90
42141;DHT22;27809;51.864;5.646;2023-04-24T06:47:24;8.90;99.90
42141;DHT22;27809;51.864;5.646;2023-04-24T06:49:50;8.90;99.90
42141;DHT22;27809;51.864;5.646;2023-04-24T06:52:17;8.90;99.90
42141;DHT22;27809;51.864;5.646;2023-04-24T06:54:43;8.80;99.90
42141;DHT22;27809;51.864;5.646;2023-04-24T06:57:09;8.80;99.90
42141;DHT22;27809;51.864;5.646;2023-04-24T06:59:35;8.80;99.90
42141;DHT22;27809;51.864;5.646;2023-04-24T07:02:01;8.90;99.90
42141;DHT22;27809;51.864;5.646;2023-04-24T07:04:26;8.80;99.90
42141;DHT22;27809;51.864;5.646;2023-04-24T07:06:53;8.80;99.90
42141;DHT22;27809;51.864;5.646;2023-04-24T07:09:24;8.80;99.90
42141;DHT22;27809;51.864;5.646;2023-04-24T07:11:54;8.90;99.90
42141;DHT22;27809;51.864;5.646;2023-04-24T07:14:20;9.00;99.90
42141;DHT22;27809;51.864;5.646;2023-04-24T07:16:46;8.90;99.90
42141;DHT22;27809;51.864;5.646;2023-04-24T07:19:12;9.00;99.90
42141;DHT22;27809;51.864;5.646;2023-04-24T07:21:37;9.00;99.90
42141;DHT22;27809;51.864;5.646;2023-04-24T07:24:03;8.90;99.90
42141;DHT22;27809;51.864;5.646;2023-04-24T07:26:30;8.80;99.90
42141;DHT22;27809;51.864;5.646;2023-04-24T07:28:55;8.90;99.90
42141;DHT22;27809;51.864;5.646;2023-04-24T07:31:21;8.80;99.90
42141;DHT22;27809;51.864;5.646;2023-04-24T07:33:47;8.80;99.90
42141;DHT22;27809;51.864;5.646;2023-04-24T07:36:13;8.90;99.90
42141;DHT22;27809;51.864;5.646;2023-04-24T07:38:42;8.80;99.90
42141;DHT22;27809;51.864;5.646;2023-04-24T07:41:08;8.70;99.90
42141;DHT22;27809;51.864;5.646;2023-04-24T07:43:35;8.70;99.90
42141;DHT22;27809;51.864;5.646;2023-04-24T07:46:00;8.70;99.90
42141;DHT22;27809;51.864;5.646;2023-04-24T07:48:26;8.60;99.90
42141;DHT22;27809;51.864;5.646;2023-04-24T07:50:52;8.60;99.90
42141;DHT22;27809;51.864;5.646;2023-04-24T07:53:18;8.60;99.90
42141;DHT22;27809;51.864;5.646;2023-04-24T07:55:43;8.60;99.90
42141;DHT22;27809;51.864;5.646;2023-04-24T07:58:09;8.60;99.90
42141;DHT22;27809;51.864;5.646;2023-04-24T08:00:34;8.80;99.90
42141;DHT22;27809;51.864;5.646;2023-04-24T08:03:00;8.60;99.90
42141;DHT22;27809;51.864;5.646;2023-04-24T08:05:26;8.60;99.90
42141;DHT22;27809;51.864;5.646;2023-04-24T08:07:53;8.60;99.90
42141;DHT22;27809;51.864;5.646;2023-04-24T08:10:20;8.60;99.90
42141;DHT22;27809;51.864;5.646;2023-04-24T08:12:46;8.60;99.90
42141;DHT22;27809;51.864;5.646;2023-04-24T08:15:11;8.60;99.90
42141;DHT22;27809;51.864;5.646;2023-04-24T08:17:37;8.60;99.90
42141;DHT22;27809;51.864;5.646;2023-04-24T08:20:03;8.60;99.90
42141;DHT22;27809;51.864;5.646;2023-04-24T08:22:30;8.60;99.90
42141;DHT22;27809;51.864;5.646;2023-04-24T08:24:56;8.60;99.90
42141;DHT22;27809;51.864;5.646;2023-04-24T08:27:22;8.70;99.90
42141;DHT22;27809;51.864;5.646;2023-04-24T08:29:48;8.80;99.90
42141;DHT22;27809;51.864;5.646;2023-04-24T08:32:14;8.80;99.90
42141;DHT22;27809;51.864;5.646;2023-04-24T08:34:40;8.90;99.90
42141;DHT22;27809;51.864;5.646;2023-04-24T08:37:05;8.80;99.90
42141;DHT22;27809;51.864;5.646;2023-04-24T08:39:31;8.80;99.90
42141;DHT22;27809;51.864;5.646;2023-04-24T08:41:56;8.80;99.90
42141;DHT22;27809;51.864;5.646;2023-04-24T08:44:22;8.80;99.90
42141;DHT22;27809;51.864;5.646;2023-04-24T08:46:48;8.90;99.90
42141;DHT22;27809;51.864;5.646;2023-04-24T08:49:14;8.80;99.90
42141;DHT22;27809;51.864;5.646;2023-04-24T08:51:44;8.70;99.90
42141;DHT22;27809;51.864;5.646;2023-04-24T08:54:12;8.70;99.90
42141;DHT22;27809;51.864;5.646;2023-04-24T08:56:38;9.00;99.90
42141;DHT22;27809;51.864;5.646;2023-04-24T08:59:06;8.80;99.90
42141;DHT22;27809;51.864;5.646;2023-04-24T09:01:32;9.00;99.90
42141;DHT22;27809;51.864;5.646;2023-04-24T09:04:03;8.80;99.90
42141;DHT22;27809;51.864;5.646;2023-04-24T09:06:30;9.00;99.90
42141;DHT22;27809;51.864;5.646;2023-04-24T09:09:00;8.90;99.90
42141;DHT22;27809;51.864;5.646;2023-04-24T09:11:26;9.00;99.90
42141;DHT22;27809;51.864;5.646;2023-04-24T09:13:53;9.00;99.90
42141;DHT22;27809;51.864;5.646;2023-04-24T09:16:20;9.20;99.90
42141;DHT22;27809;51.864;5.646;2023-04-24T09:18:46;9.10;99.90
42141;DHT22;27809;51.864;5.646;2023-04-24T09:21:11;9.10;99.90
42141;DHT22;27809;51.864;5.646;2023-04-24T09:23:38;9.20;99.90
42141;DHT22;27809;51.864;5.646;2023-04-24T09:26:04;9.10;99.90
42141;DHT22;27809;51.864;5.646;2023-04-24T09:28:40;9.10;99.90
42141;DHT22;27809;51.864;5.646;2023-04-24T09:31:09;9.20;99.90
42141;DHT22;27809;51.864;5.646;2023-04-24T09:33:36;9.30;99.90
42141;DHT22;27809;51.864;5.646;2023-04-24T09:36:01;9.30;99.90
42141;DHT22;27809;51.864;5.646;2023-04-24T09:38:35;9.20;99.90
42141;DHT22;27809;51.864;5.646;2023-04-24T09:41:10;9.20;99.90
42141;DHT22;27809;51.864;5.646;2023-04-24T09:43:38;9.50;99.90
42141;DHT22;27809;51.864;5.646;2023-04-24T09:46:06;9.40;99.90
42141;DHT22;27809;51.864;5.646;2023-04-24T09:48:34;9.40;99.90
42141;DHT22;27809;51.864;5.646;2023-04-24T09:51:02;9.70;99.90
42141;DHT22;27809;51.864;5.646;2023-04-24T09:53:29;9.50;99.90
42141;DHT22;27809;51.864;5.646;2023-04-24T09:55:55;9.60;99.90
42141;DHT22;27809;51.864;5.646;2023-04-24T09:58:28;9.90;99.90
42141;DHT22;27809;51.864;5.646;2023-04-24T10:00:55;10.00;99.90
42141;DHT22;27809;51.864;5.646;2023-04-24T10:03:24;10.10;96.80
42141;DHT22;27809;51.864;5.646;2023-04-24T10:05:51;10.20;90.50
42141;DHT22;27809;51.864;5.646;2023-04-24T10:08:17;10.20;86.60
42141;DHT22;27809;51.864;5.646;2023-04-24T10:10:44;10.70;92.30
42141;DHT22;27809;51.864;5.646;2023-04-24T10:13:12;11.00;91.00
42141;DHT22;27809;51.864;5.646;2023-04-24T10:15:39;11.40;90.90
42141;DHT22;27809;51.864;5.646;2023-04-24T10:18:06;10.90;65.00
42141;DHT22;27809;51.864;5.646;2023-04-24T10:20:34;10.50;71.70
42141;DHT22;27809;51.864;5.646;2023-04-24T10:23:00;10.20;71.50
42141;DHT22;27809;51.864;5.646;2023-04-24T10:25:31;9.90;68.80
42141;DHT22;27809;51.864;5.646;2023-04-24T10:27:58;10.10;70.40
42141;DHT22;27809;51.864;5.646;2023-04-24T10:30:32;10.40;66.10
42141;DHT22;27809;51.864;5.646;2023-04-24T10:33:03;10.40;68.40
42141;DHT22;27809;51.864;5.646;2023-04-24T10:35:34;10.40;63.10
42141;DHT22;27809;51.864;5.646;2023-04-24T10:38:11;10.30;66.30
42141;DHT22;27809;51.864;5.646;2023-04-24T10:40:37;10.20;70.20
42141;DHT22;27809;51.864;5.646;2023-04-24T10:43:04;10.20;75.40
42141;DHT22;27809;51.864;5.646;2023-04-24T10:45:34;10.10;82.40
42141;DHT22;27809;51.864;5.646;2023-04-24T10:48:09;9.60;76.30
42141;DHT22;27809;51.864;5.646;2023-04-24T10:50:52;9.50;90.90
42141;DHT22;27809;51.864;5.646;2023-04-24T10:53:20;9.40;94.30
42141;DHT22;27809;51.864;5.646;2023-04-24T10:55:48;9.70;94.50
42141;DHT22;27809;51.864;5.646;2023-04-24T10:58:14;10.10;94.20
42141;DHT22;27809;51.864;5.646;2023-04-24T11:00:42;10.30;87.80
42141;DHT22;27809;51.864;5.646;2023-04-24T11:03:30;10.10;71.40
42141;DHT22;27809;51.864;5.646;2023-04-24T11:05:58;10.50;90.40
42141;DHT22;27809;51.864;5.646;2023-04-24T11:08:32;10.60;75.90
42141;DHT22;27809;51.864;5.646;2023-04-24T11:11:03;10.80;74.30
42141;DHT22;27809;51.864;5.646;2023-04-24T11:22:03;9.80;65.90
42141;DHT22;27809;51.864;5.646;2023-04-24T11:24:39;9.80;78.00
42141;DHT22;27809;51.864;5.646;2023-04-24T11:34:46;10.40;80.50
42141;DHT22;27809;51.864;5.646;2023-04-24T11:37:13;10.10;65.20
42141;DHT22;27809;51.864;5.646;2023-04-24T11:39:38;10.10;83.60
42141;DHT22;27809;51.864;5.646;2023-04-24T11:42:04;10.20;91.60
42141;DHT22;27809;51.864;5.646;2023-04-24T11:44:33;10.40;79.50
42141;DHT22;27809;51.864;5.646;2023-04-24T11:46:59;10.80;75.30
42141;DHT22;27809;51.864;5.646;2023-04-24T11:49:25;11.30;87.90
42141;DHT22;27809;51.864;5.646;2023-04-24T11:51:55;11.50;74.80
42141;DHT22;27809;51.864;5.646;2023-04-24T11:54:20;11.40;63.10
42141;DHT22;27809;51.864;5.646;2023-04-24T11:56:47;11.10;68.20
42141;DHT22;27809;51.864;5.646;2023-04-24T11:59:14;11.30;66.20
42141;DHT22;27809;51.864;5.646;2023-04-24T12:01:44;11.40;67.70
42141;DHT22;27809;51.864;5.646;2023-04-24T12:04:10;11.50;48.60
42141;DHT22;27809;51.864;5.646;2023-04-24T12:06:36;11.70;69.50
42141;DHT22;27809;51.864;5.646;2023-04-24T12:09:02;17.40;37.80
42141;DHT22;27809;51.864;5.646;2023-04-24T12:11:27;14.00;3.10
42141;DHT22;27809;51.864;5.646;2023-04-24T12:13:53;11.40;29.10
42141;DHT22;27809;51.864;5.646;2023-04-24T12:16:19;10.80;50.60
42141;DHT22;27809;51.864;5.646;2023-04-24T12:18:45;10.50;57.80
42141;DHT22;27809;51.864;5.646;2023-04-24T12:21:22;10.30;57.90
42141;DHT22;27809;51.864;5.646;2023-04-24T12:23:50;10.10;59.20
42141;DHT22;27809;51.864;5.646;2023-04-24T12:26:19;10.00;73.80
42141;DHT22;27809;51.864;5.646;2023-04-24T12:28:47;10.30;90.30
42141;DHT22;27809;51.864;5.646;2023-04-24T12:31:14;10.60;87.00
42141;DHT22;27809;51.864;5.646;2023-04-24T12:33:40;10.40;91.10
42141;DHT22;27809;51.864;5.646;2023-04-24T12:36:06;10.90;91.70
42141;DHT22;27809;51.864;5.646;2023-04-24T12:38:31;11.00;89.20
42141;DHT22;27809;51.864;5.646;2023-04-24T12:41:10;11.30;86.50
42141;DHT22;27809;51.864;5.646;2023-04-24T12:43:36;11.20;73.90
42141;DHT22;27809;51.864;5.646;2023-04-24T12:46:03;11.20;77.80
42141;DHT22;27809;51.864;5.646;2023-04-24T12:48:28;10.10;86.60
42141;DHT22;27809;51.864;5.646;2023-04-24T12:50:54;9.50;96.30
42141;DHT22;27809;51.864;5.646;2023-04-24T12:53:21;9.30;99.90
42141;DHT22;27809;51.864;5.646;2023-04-24T12:55:47;9.40;99.90
42141;DHT22;27809;51.864;5.646;2023-04-24T12:58:21;9.30;99.90
42141;DHT22;27809;51.864;5.646;2023-04-24T13:00:47;9.20;99.90
42141;DHT22;27809;51.864;5.646;2023-04-24T13:03:13;9.00;99.60
42141;DHT22;27809;51.864;5.646;2023-04-24T13:05:39;9.20;98.80
42141;DHT22;27809;51.864;5.646;2023-04-24T13:08:04;9.20;97.70
42141;DHT22;27809;51.864;5.646;2023-04-24T13:10:30;9.50;95.70
42141;DHT22;27809;51.864;5.646;2023-04-24T13:12:56;10.10;97.00
42141;DHT22;27809;51.864;5.646;2023-04-24T13:15:21;10.50;84.50
42141;DHT22;27809;51.864;5.646;2023-04-24T13:17:47;11.40;82.30
42141;DHT22;27809;51.864;5.646;2023-04-24T13:20:13;12.10;80.60
42141;DHT22;27809;51.864;5.646;2023-04-24T13:22:38;12.40;54.20
42141;DHT22;27809;51.864;5.646;2023-04-24T13:25:04;12.10;43.00
42141;DHT22;27809;51.864;5.646;2023-04-24T13:27:31;11.30;54.80
42141;DHT22;27809;51.864;5.646;2023-04-24T13:29:57;10.80;58.70
42141;DHT22;27809;51.864;5.646;2023-04-24T13:32:22;10.70;64.80
42141;DHT22;27809;51.864;5.646;2023-04-24T13:34:48;10.90;55.40
42141;DHT22;27809;51.864;5.646;2023-04-24T13:37:13;10.60;57.80
42141;DHT22;27809;51.864;5.646;2023-04-24T13:39:40;10.50;68.70
42141;DHT22;27809;51.864;5.646;2023-04-24T13:42:06;10.40;71.30
42141;DHT22;27809;51.864;5.646;2023-04-24T13:44:32;10.00;57.70
42141;DHT22;27809;51.864;5.646;2023-04-24T13:46:58;9.90;66.50
42141;DHT22;27809;51.864;5.646;2023-04-24T13:49:24;9.70;75.30
42141;DHT22;27809;51.864;5.646;2023-04-24T13:51:51;9.60;72.30
42141;DHT22;27809;51.864;5.646;2023-04-24T13:54:17;9.60;69.50
42141;DHT22;27809;51.864;5.646;2023-04-24T13:56:42;9.80;80.00
42141;DHT22;27809;51.864;5.646;2023-04-24T13:59:08;10.20;82.10
42141;DHT22;27809;51.864;5.646;2023-04-24T14:01:34;10.30;67.10
42141;DHT22;27809;51.864;5.646;2023-04-24T14:03:59;10.40;65.80
42141;DHT22;27809;51.864;5.646;2023-04-24T14:06:25;10.50;75.60
42141;DHT22;27809;51.864;5.646;2023-04-24T14:08:51;10.60;53.90
42141;DHT22;27809;51.864;5.646;2023-04-24T14:11:18;11.40;51.30
42141;DHT22;27809;51.864;5.646;2023-04-24T14:13:44;13.40;58.80
42141;DHT22;27809;51.864;5.646;2023-04-24T14:16:10;11.70;35.20
42141;DHT22;27809;51.864;5.646;2023-04-24T14:18:36;11.40;42.30
42141;DHT22;27809;51.864;5.646;2023-04-24T14:21:05;11.60;52.00
42141;DHT22;27809;51.864;5.646;2023-04-24T14:23:31;11.60;40.50
42141;DHT22;27809;51.864;5.646;2023-04-24T14:25:58;11.40;42.30
42141;DHT22;27809;51.864;5.646;2023-04-24T14:28:23;11.60;49.20
42141;DHT22;27809;51.864;5.646;2023-04-24T14:30:49;11.20;45.00
42141;DHT22;27809;51.864;5.646;2023-04-24T14:33:15;11.00;52.70
42141;DHT22;27809;51.864;5.646;2023-04-24T14:35:41;11.00;64.50
42141;DHT22;27809;51.864;5.646;2023-04-24T14:38:10;10.70;59.20
42141;DHT22;27809;51.864;5.646;2023-04-24T14:40:36;11.00;61.70
42141;DHT22;27809;51.864;5.646;2023-04-24T14:43:03;10.90;54.80
42141;DHT22;27809;51.864;5.646;2023-04-24T14:45:29;10.90;53.80
42141;DHT22;27809;51.864;5.646;2023-04-24T14:47:55;10.80;55.50
42141;DHT22;27809;51.864;5.646;2023-04-24T14:50:21;10.90;64.40
42141;DHT22;27809;51.864;5.646;2023-04-24T14:52:47;11.40;56.90
42141;DHT22;27809;51.864;5.646;2023-04-24T14:55:12;10.70;50.90
42141;DHT22;27809;51.864;5.646;2023-04-24T14:57:38;10.60;69.00
42141;DHT22;27809;51.864;5.646;2023-04-24T15:00:05;10.40;65.90
42141;DHT22;27809;51.864;5.646;2023-04-24T15:02:33;10.50;62.90
42141;DHT22;27809;51.864;5.646;2023-04-24T15:04:59;10.70;67.20
42141;DHT22;27809;51.864;5.646;2023-04-24T15:07:25;10.80;67.20
42141;DHT22;27809;51.864;5.646;2023-04-24T15:09:50;10.80;64.20
42141;DHT22;27809;51.864;5.646;2023-04-24T15:12:16;10.90;73.80
42141;DHT22;27809;51.864;5.646;2023-04-24T15:14:41;11.30;66.70
42141;DHT22;27809;51.864;5.646;2023-04-24T15:17:07;11.80;58.30
42141;DHT22;27809;51.864;5.646;2023-04-24T15:19:32;12.10;43.60
42141;DHT22;27809;51.864;5.646;2023-04-24T15:21:58;11.40;40.30
42141;DHT22;27809;51.864;5.646;2023-04-24T15:24:23;11.20;41.80
42141;DHT22;27809;51.864;5.646;2023-04-24T15:26:49;11.20;49.00
42141;DHT22;27809;51.864;5.646;2023-04-24T15:29:15;11.00;49.90
42141;DHT22;27809;51.864;5.646;2023-04-24T15:31:40;10.80;51.90
42141;DHT22;27809;51.864;5.646;2023-04-24T15:34:06;10.80;52.90
42141;DHT22;27809;51.864;5.646;2023-04-24T15:36:32;10.50;48.10
42141;DHT22;27809;51.864;5.646;2023-04-24T15:38:57;10.40;46.70
42141;DHT22;27809;51.864;5.646;2023-04-24T15:41:23;10.30;47.70
42141;DHT22;27809;51.864;5.646;2023-04-24T15:43:48;10.50;35.70
42141;DHT22;27809;51.864;5.646;2023-04-24T15:46:14;11.00;25.30
42141;DHT22;27809;51.864;5.646;2023-04-24T15:48:42;11.70;27.90
42141;DHT22;27809;51.864;5.646;2023-04-24T15:51:07;12.10;18.70
42141;DHT22;27809;51.864;5.646;2023-04-24T15:53:33;12.30;11.10